Fiske, Canada
Current Conditions -  °F | °C
As of 12:00 PM on Sunday 21 Dec 2014 (Local Time) from CYKY Reporting Station
Overcast Overcast  
Wind Chill: 12°   Ceiling: 4000
Heat Index: 23°   Visibility: 15mi
Dew Point: 19°   Wind: 10mph
Humidity: 86%   Direction: 70°ENE
Pressure: 29.27"   Gusts: NA
Location:  51.49°N, 108.39°W
Report Text: CYKY 211800Z 07009KT 15SM BKN040 OVC070 M05/M07 A2927 RMK SC5AC3 SLP945
Loading
Personal Weather Stations






























Interactive Weather Map New forecast layout! Learn more

10-Day Weather Forecast

Advertisements
Track Severe Weather on mobile